Time;durP1;ratioP1;P1;durP2;ratioP2;P2;SDS_P1;SDS_P2;PMS_P1;PMS_P2;Temp;Humidity;BMP_temperature;BMP_pressure;BME280_temperature;BME280_humidity;BME280_pressure;Samples;Min_cycle;Max_cycle;Signal;HPM_P1;HPM_P2
2021/11/02 00:00:38;;;;;;;11.82;5.20;;;;;;;7.31;100.00;99491.31;5003908;28;20128;-83
2021/11/02 00:03:05;;;;;;;10.25;5.38;;;;;;;7.22;100.00;99490.53;4982982;28;20565;-84
2021/11/02 00:05:31;;;;;;;9.45;5.55;;;;;;;7.17;100.00;99490.22;5004123;28;20053;-83
2021/11/02 00:07:57;;;;;;;8.20;5.20;;;;;;;7.15;100.00;99491.38;5000362;28;20045;-84
2021/11/02 00:10:23;;;;;;;10.93;5.50;;;;;;;7.13;100.00;99488.88;5000146;28;20057;-83
2021/11/02 00:12:49;;;;;;;8.82;5.65;;;;;;;7.11;100.00;99484.75;5001377;28;20042;-85
2021/11/02 00:15:23;;;;;;;9.80;5.68;;;;;;;7.07;100.00;99494.09;5003661;28;20133;-83
2021/11/02 00:18:00;;;;;;;11.63;5.70;;;;;;;7.04;100.00;99486.44;5004823;28;20065;-84
2021/11/02 00:20:27;;;;;;;8.50;5.60;;;;;;;6.99;100.00;99476.25;5002738;28;20073;-84
2021/11/02 00:22:55;;;;;;;10.48;5.93;;;;;;;6.94;100.00;99482.13;5000925;28;20037;-84
2021/11/02 00:25:27;;;;;;;9.52;6.38;;;;;;;6.95;100.00;99470.47;4984141;28;20037;-84
2021/11/02 00:27:54;;;;;;;10.15;5.70;;;;;;;6.93;100.00;99480.50;5004554;28;20042;-83
2021/11/02 00:30:22;;;;;;;10.73;6.25;;;;;;;6.90;100.00;99480.81;4986165;28;20407;-84
2021/11/02 00:32:50;;;;;;;11.63;6.22;;;;;;;6.88;100.00;99482.00;4999857;28;20065;-83
2021/11/02 00:35:17;;;;;;;11.30;6.70;;;;;;;6.85;100.00;99487.66;4999447;28;20057;-83
2021/11/02 00:37:43;;;;;;;9.93;5.90;;;;;;;6.85;100.00;99482.31;4987456;28;20109;-84
2021/11/02 00:40:10;;;;;;;10.80;6.05;;;;;;;6.85;100.00;99485.00;4985181;28;20038;-85
2021/11/02 00:42:40;;;;;;;13.65;7.03;;;;;;;6.82;100.00;99485.34;4992007;28;20411;-83
2021/11/02 00:45:09;;;;;;;10.63;6.80;;;;;;;6.77;100.00;99485.88;4987263;28;20042;-83
2021/11/02 00:47:35;;;;;;;;;;;;;;;6.78;100.00;99479.53;4984796;28;20038;-85
2021/11/02 00:50:09;;;;;;;9.45;5.93;;;;;;;6.63;100.00;99483.91;4999786;28;20370;-85
2021/11/02 00:52:40;;;;;;;13.10;6.55;;;;;;;6.54;100.00;99483.91;4985585;28;20111;-84
2021/11/02 00:55:07;;;;;;;10.07;6.55;;;;;;;6.51;100.00;99480.78;4986299;28;20452;-83
2021/11/02 00:57:33;;;;;;;8.57;7.07;;;;;;;6.51;100.00;99481.59;4996957;28;20100;-84
2021/11/02 00:59:58;;;;;;;13.02;6.53;;;;;;;6.52;100.00;99491.25;5002446;28;20471;-83
2021/11/02 01:02:23;;;;;;;10.48;6.25;;;;;;;6.56;100.00;99481.09;4995377;28;20046;-84
2021/11/02 01:04:49;;;;;;;12.30;6.85;;;;;;;6.57;100.00;99485.41;5001514;28;20490;-85
2021/11/02 01:07:15;;;;;;;13.43;6.03;;;;;;;6.49;100.00;99485.44;4986395;28;20100;-84
2021/11/02 01:09:42;;;;;;;13.73;6.53;;;;;;;6.50;100.00;99484.41;5001321;28;20092;-83
2021/11/02 01:12:08;;;;;;;12.02;6.57;;;;;;;6.57;100.00;99484.59;4990637;28;20037;-82
2021/11/02 01:14:33;;;;;;;15.18;7.38;;;;;;;6.56;100.00;99489.09;4991255;28;20042;-84
2021/11/02 01:16:59;;;;;;;15.80;6.85;;;;;;;6.57;100.00;99489.94;5000556;28;20046;-84
2021/11/02 01:19:24;;;;;;;12.93;6.63;;;;;;;6.53;100.00;99482.28;4971290;28;20034;-82
2021/11/02 01:21:49;;;;;;;11.68;6.70;;;;;;;6.53;100.00;99479.59;4968521;28;20060;-85
2021/11/02 01:24:16;;;;;;;12.68;6.22;;;;;;;6.51;100.00;99489.59;4995783;28;20113;-83
2021/11/02 01:26:41;;;;;;;13.15;7.25;;;;;;;6.48;100.00;99481.94;4981924;28;20038;-83
2021/11/02 01:29:07;;;;;;;15.32;7.40;;;;;;;6.48;100.00;99476.63;4979292;28;20045;-84
2021/11/02 01:31:32;;;;;;;13.52;7.18;;;;;;;6.45;100.00;99479.63;4995429;28;20073;-83
2021/11/02 01:33:58;;;;;;;13.95;6.50;;;;;;;6.35;100.00;99472.81;4969788;28;20487;-84
2021/11/02 01:36:23;;;;;;;9.57;6.45;;;;;;;6.38;100.00;99475.94;4998503;28;20098;-82
2021/11/02 01:38:49;;;;;;;16.52;8.27;;;;;;;6.35;100.00;99481.63;5006007;28;20121;-83
2021/11/02 01:41:18;;;;;;;11.82;6.38;;;;;;;6.36;100.00;99488.63;4989457;28;20085;-83
2021/11/02 01:43:44;;;;;;;13.65;6.35;;;;;;;6.32;100.00;99479.28;4968868;28;20475;-84
2021/11/02 01:46:40;;;;;;;10.68;6.55;;;;;;;6.31;100.00;99478.47;5007337;28;20384;-83
2021/11/02 01:49:06;;;;;;;11.80;6.07;;;;;;;6.30;100.00;99481.28;4990002;28;20038;-84
2021/11/02 01:51:33;;;;;;;15.88;5.85;;;;;;;6.30;100.00;99478.63;4990958;28;20053;-82
2021/11/02 01:54:00;;;;;;;12.48;6.13;;;;;;;6.33;100.00;99483.66;4981271;28;20057;-84
2021/11/02 01:56:26;;;;;;;7.40;5.28;;;;;;;6.29;100.00;99477.78;4997564;28;20137;-84
2021/11/02 01:58:53;;;;;;;9.43;5.50;;;;;;;6.32;100.00;99481.97;4990020;28;20513;-83
2021/11/02 02:01:48;;;;;;;14.73;6.00;;;;;;;6.28;100.00;99483.31;4982587;28;20041;-83
2021/11/02 02:04:22;;;;;;;11.98;5.75;;;;;;;6.27;100.00;99477.16;4985643;28;20041;-84
2021/11/02 02:07:13;;;;;;;12.15;5.90;;;;;;;6.30;100.00;99479.47;4995787;28;20053;-83
2021/11/02 02:09:47;;;;;;;10.68;5.53;;;;;;;6.30;100.00;99481.28;4988700;28;20772;-83
2021/11/02 02:12:29;;;;;;;10.52;5.80;;;;;;;6.30;100.00;99476.81;4984234;28;20037;-85
2021/11/02 02:20:28;;;;;;;12.10;6.07;;;;;;;6.30;100.00;99478.63;5004702;28;20402;-84
2021/11/02 02:23:05;;;;;;;11.90;6.15;;;;;;;6.32;100.00;99477.47;5002513;28;20042;-83
2021/11/02 02:25:43;;;;;;;11.82;6.35;;;;;;;6.32;100.00;99481.97;5024562;28;20054;-84
2021/11/02 02:28:17;;;;;;;9.40;5.78;;;;;;;6.33;100.00;99478.31;5009180;28;20034;-84
2021/11/02 02:30:52;;;;;;;11.15;6.20;;;;;;;6.36;100.00;99480.63;5008709;28;20053;-84
2021/11/02 02:33:21;;;;;;;11.18;5.78;;;;;;;6.31;100.00;99478.47;5000824;28;22854;-84
2021/11/02 02:35:47;;;;;;;10.63;6.32;;;;;;;6.33;100.00;99479.13;5017731;28;20046;-85
2021/11/02 02:38:15;;;;;;;16.00;7.03;;;;;;;6.33;100.00;99478.31;5000858;28;20064;-83
2021/11/02 02:40:42;;;;;;;11.30;6.40;;;;;;;6.24;100.00;99476.63;5007385;28;20049;-82
2021/11/02 02:43:08;;;;;;;11.65;7.50;;;;;;;6.24;100.00;99479.31;5002048;28;20091;-83
2021/11/02 02:45:35;;;;;;;11.32;7.45;;;;;;;6.14;100.00;99476.00;5019953;28;20041;-84
2021/11/02 02:48:02;;;;;;;12.15;7.90;;;;;;;6.12;100.00;99464.66;5003771;28;20473;-84
2021/11/02 02:50:28;;;;;;;11.32;7.53;;;;;;;6.08;100.00;99470.34;5010336;28;20096;-82
2021/11/02 02:52:55;;;;;;;12.80;7.68;;;;;;;6.05;100.00;99469.84;5014133;28;20030;-84
2021/11/02 02:55:21;;;;;;;13.65;8.20;;;;;;;6.06;100.00;99464.34;5029500;28;20062;-84
2021/11/02 02:57:48;;;;;;;13.43;8.38;;;;;;;6.09;100.00;99468.50;5036606;22;20049;-88
2021/11/02 03:00:16;;;;;;;16.25;8.32;;;;;;;6.10;100.00;99462.19;4987023;28;20044;-87
2021/11/02 03:02:44;;;;;;;14.15;6.93;;;;;;;6.10;100.00;99470.19;4994738;28;20709;-88
2021/11/02 03:05:12;;;;;;;10.15;7.00;;;;;;;6.12;100.00;99465.50;4965050;28;20034;-89
2021/11/02 03:07:38;;;;;;;13.67;6.57;;;;;;;6.09;100.00;99461.34;4957258;28;20046;-88
2021/11/02 03:10:07;;;;;;;15.82;7.20;;;;;;;6.13;100.00;99461.00;4914216;29;20055;-88
2021/11/02 03:12:35;;;;;;;10.65;6.60;;;;;;;6.13;100.00;99458.34;4878404;29;20049;-88
2021/11/02 03:15:39;;;;;;;11.93;7.32;;;;;;;6.15;100.00;99459.00;4864161;29;20124;-88
2021/11/02 03:48:52;;;;;;;17.02;8.93;;;;;;;6.09;100.00;99481.81;4763366;29;20147;-88
2021/11/02 03:59:50;;;;;;;19.73;10.00;;;;;;;6.05;100.00;99480.50;4784298;29;20058;-88
2021/11/02 05:13:53;;;;;;;22.00;13.15;;;;;;;5.81;100.00;99478.59;4842692;29;20106;-88
2021/11/02 05:47:01;;;;;;;26.15;16.48;;;;;;;5.63;100.00;99465.47;4784224;29;20061;-87
2021/11/02 05:49:53;;;;;;;23.67;14.45;;;;;;;5.61;100.00;99464.78;4790883;29;20078;-86
2021/11/02 05:58:21;;;;;;;27.25;14.25;;;;;;;5.55;100.00;99471.63;4804265;29;20063;-91
2021/11/02 06:06:10;;;;;;;22.95;13.90;;;;;;;5.58;100.00;99458.00;4824679;29;20128;-87
2021/11/02 06:23:23;;;;;;;23.33;14.95;;;;;;;5.59;100.00;99466.78;4840422;29;20050;-87
2021/11/02 06:28:48;;;;;;;25.25;14.35;;;;;;;5.34;100.00;99463.25;4950545;28;20192;-86
2021/11/02 06:31:19;;;;;;;23.90;14.52;;;;;;;5.35;100.00;99470.22;4916493;28;20102;-85
2021/11/02 06:34:03;;;;;;;24.90;16.38;;;;;;;5.34;100.00;99466.75;4944963;29;20043;-86
2021/11/02 07:18:37;;;;;;;24.05;15.73;;;;;;;5.37;100.00;99494.84;4993685;28;20050;-86
2021/11/02 07:21:26;;;;;;;27.70;15.73;;;;;;;5.38;100.00;99499.16;5023385;28;20041;-86
2021/11/02 07:24:12;;;;;;;26.70;16.23;;;;;;;5.46;100.00;99504.50;4968983;28;20054;-87
2021/11/02 07:26:47;;;;;;;26.48;17.77;;;;;;;5.51;100.00;99504.88;4978781;28;20124;-86
2021/11/02 08:48:26;;;;;;;12.63;7.22;;;;;;;7.10;100.00;99493.72;4995891;28;20523;-86
2021/11/02 08:50:55;;;;;;;10.40;6.00;;;;;;;7.10;100.00;99486.56;4994740;28;20056;-85
2021/11/02 08:53:28;;;;;;;11.30;6.38;;;;;;;7.13;100.00;99494.22;4962917;28;20046;-86
2021/11/02 08:56:02;;;;;;;14.80;6.78;;;;;;;7.14;100.00;99495.91;4996832;28;20590;-86
2021/11/02 08:58:30;;;;;;;12.60;7.15;;;;;;;7.22;100.00;99489.66;4994395;28;20555;-87
2021/11/02 09:01:03;;;;;;;11.57;6.30;;;;;;;7.24;100.00;99490.34;4996409;28;20042;-86
2021/11/02 09:03:34;;;;;;;12.20;6.57;;;;;;;7.27;100.00;99492.66;5030619;28;20047;-87
2021/11/02 09:06:03;;;;;;;11.82;7.13;;;;;;;7.28;100.00;99499.69;5036161;28;20131;-85
2021/11/02 09:08:30;;;;;;;;;;;;;;;7.32;100.00;99490.31;5034205;28;20438;-86
2021/11/02 09:11:00;;;;;;;12.23;7.10;;;;;;;7.28;100.00;99497.00;5026185;28;19913;-86
2021/11/02 09:13:31;;;;;;;9.10;6.07;;;;;;;7.33;100.00;99502.63;5009182;28;20042;-86
2021/11/02 09:16:03;;;;;;;10.98;6.05;;;;;;;7.39;100.00;99501.97;4994183;28;20055;-85
2021/11/02 09:18:32;;;;;;;17.20;7.20;;;;;;;7.42;100.00;99496.25;5012015;28;20042;-86
2021/11/02 09:21:00;;;;;;;11.02;6.00;;;;;;;7.49;100.00;99503.56;4980062;28;20049;-86
2021/11/02 09:23:28;;;;;;;11.23;6.40;;;;;;;7.59;100.00;99490.81;4977262;28;20404;-86
2021/11/02 09:25:54;;;;;;;10.13;5.63;;;;;;;7.77;100.00;99498.53;4987958;28;20110;-86
2021/11/02 09:28:20;;;;;;;8.85;5.38;;;;;;;7.81;100.00;99495.34;5016565;28;20038;-88
2021/11/02 09:30:46;;;;;;;9.05;5.57;;;;;;;7.94;100.00;99493.91;5019911;28;20053;-89
2021/11/02 09:33:23;;;;;;;10.98;5.78;;;;;;;8.08;100.00;99495.78;5028148;28;20131;-85
2021/11/02 09:36:06;;;;;;;9.35;4.75;;;;;;;8.18;100.00;99499.06;5019163;28;20388;-86
2021/11/02 09:38:49;;;;;;;7.05;4.57;;;;;;;8.22;100.00;99499.53;5034602;28;20120;-86
2021/11/02 09:41:42;;;;;;;9.82;4.32;;;;;;;8.33;100.00;99499.09;5031965;28;20045;-87
2021/11/02 09:44:40;;;;;;;12.40;4.88;;;;;;;8.45;99.43;99496.84;5033453;28;20049;-86
2021/11/02 09:47:27;;;;;;;;;;;;;;;8.53;98.78;99499.44;5034633;28;20522;-87
2021/11/02 09:50:32;;;;;;;8.20;4.53;;;;;;;8.50;98.38;99505.16;5026689;28;19916;-86
2021/11/02 09:53:06;;;;;;;12.60;4.28;;;;;;;8.52;97.60;99508.47;4992873;28;20123;-86
2021/11/02 09:56:01;;;;;;;7.20;3.85;;;;;;;8.57;97.48;99500.72;5034413;28;20052;-88
2021/11/02 09:58:27;;;;;;;10.45;4.47;;;;;;;8.58;97.24;99508.56;5033467;28;20049;-85
2021/11/02 10:01:27;;;;;;;9.30;4.63;;;;;;;8.65;97.09;99510.50;5034256;28;20041;-85
2021/11/02 10:04:10;;;;;;;10.20;4.72;;;;;;;8.66;97.05;99505.00;5037712;28;20044;-86
2021/11/02 10:06:40;;;;;;;9.35;4.90;;;;;;;8.72;97.03;99501.59;5038647;28;20033;-86
2021/11/02 10:09:09;;;;;;;10.20;5.18;;;;;;;8.76;97.09;99499.38;5057676;28;20044;-89
2021/11/02 10:11:49;;;;;;;9.67;4.70;;;;;;;8.84;97.04;99506.47;5038525;28;20128;-85
2021/11/02 10:14:34;;;;;;;8.23;4.25;;;;;;;8.85;96.59;99506.28;5012765;28;20283;-86
2021/11/02 10:17:39;;;;;;;5.90;4.22;;;;;;;8.86;96.58;99509.78;5014679;28;20132;-86
2021/11/02 10:20:30;;;;;;;9.02;4.75;;;;;;;8.87;96.48;99511.47;5004820;28;20107;-87
2021/11/02 10:23:17;;;;;;;10.85;4.60;;;;;;;8.87;96.59;99506.94;5013993;28;20080;-86
2021/11/02 10:26:17;;;;;;;7.97;4.65;;;;;;;8.92;96.80;99504.53;4981721;28;20041;-86
2021/11/02 10:29:13;;;;;;;9.70;5.00;;;;;;;8.96;97.13;99505.00;4981831;28;20044;-86
2021/11/02 10:32:08;;;;;;;8.10;4.53;;;;;;;8.98;96.81;99502.97;5006071;28;20437;-86
2021/11/02 10:34:52;;;;;;;9.05;5.22;;;;;;;8.99;96.83;99497.41;4998555;28;20124;-86
2021/11/02 10:37:48;;;;;;;8.88;4.70;;;;;;;8.97;96.81;99491.41;5011642;28;20049;-86
2021/11/02 10:40:33;;;;;;;8.45;4.22;;;;;;;8.99;96.65;99504.63;5012487;28;20042;-86
2021/11/02 10:43:22;;;;;;;9.10;5.18;;;;;;;8.99;97.48;99500.09;5012647;28;20045;-86
2021/11/02 10:45:55;;;;;;;9.52;4.85;;;;;;;9.01;96.76;99494.56;4991617;28;20044;-89
2021/11/02 10:48:32;;;;;;;10.15;4.20;;;;;;;8.99;96.49;99501.94;4993881;28;20046;-89
2021/11/02 10:51:05;;;;;;;9.80;4.60;;;;;;;9.02;96.48;99498.91;4993724;28;20042;-86
2021/11/02 10:53:38;;;;;;;10.15;5.38;;;;;;;9.06;97.04;99496.66;4974850;28;20048;-87
2021/11/02 10:56:11;;;;;;;9.98;4.60;;;;;;;9.03;96.75;99498.72;4987612;28;20484;-86
2021/11/02 10:58:47;;;;;;;8.90;4.53;;;;;;;9.02;97.21;99498.91;5033656;28;20118;-86
2021/11/02 11:01:15;;;;;;;10.07;5.43;;;;;;;9.06;96.83;99492.16;5008059;28;20049;-87
2021/11/02 11:03:42;;;;;;;7.68;4.78;;;;;;;9.08;96.82;99498.16;4996494;28;20050;-87
2021/11/02 11:06:14;;;;;;;8.55;4.40;;;;;;;9.08;96.67;99497.31;4979875;28;20046;-86
2021/11/02 11:08:42;;;;;;;10.63;6.40;;;;;;;9.11;96.95;99503.13;4982166;28;20052;-87
2021/11/02 11:11:18;;;;;;;8.80;5.25;;;;;;;9.06;96.86;99499.34;4990611;28;20029;-86
2021/11/02 11:13:46;;;;;;;9.02;5.00;;;;;;;9.05;97.10;99493.16;5024541;28;20037;-86
2021/11/02 11:16:20;;;;;;;7.70;4.70;;;;;;;9.11;97.06;99500.44;4992441;28;20440;-85
2021/11/02 11:19:23;;;;;;;7.15;5.05;;;;;;;9.10;96.61;99497.97;4993685;28;20289;-86
2021/11/02 11:21:50;;;;;;;8.73;4.60;;;;;;;9.08;96.44;99503.50;4978261;28;20069;-85
2021/11/02 11:24:24;;;;;;;7.22;4.50;;;;;;;9.08;96.47;99503.50;4993090;28;20034;-86
2021/11/02 11:26:57;;;;;;;8.90;4.70;;;;;;;9.09;96.81;99499.81;4997235;28;20488;-87
2021/11/02 11:29:26;;;;;;;11.70;6.18;;;;;;;9.14;97.30;99497.41;4965113;28;20525;-86
2021/11/02 11:31:57;;;;;;;8.68;5.18;;;;;;;9.21;97.52;99489.47;5026435;28;20630;-86
2021/11/02 11:34:35;;;;;;;10.00;5.85;;;;;;;9.20;97.26;99496.66;5036017;28;20523;-86
2021/11/02 11:37:02;;;;;;;7.32;5.00;;;;;;;9.24;97.20;99489.91;5036470;28;20056;-85
2021/11/02 11:39:30;;;;;;;9.63;4.78;;;;;;;9.30;96.82;99483.00;5028754;28;20124;-86
2021/11/02 11:41:57;;;;;;;7.78;4.25;;;;;;;9.35;96.69;99493.97;5037034;28;20040;-87
2021/11/02 11:44:28;;;;;;;7.22;4.20;;;;;;;9.36;96.70;99490.28;5035113;28;20518;-86
2021/11/02 11:47:20;;;;;;;8.27;4.32;;;;;;;9.37;96.26;99483.88;5053263;28;20483;-86
2021/11/02 11:49:50;;;;;;;11.02;4.68;;;;;;;9.37;96.77;99485.75;5020832;28;20435;-87
2021/11/02 11:52:25;;;;;;;7.35;4.13;;;;;;;9.42;96.90;99486.00;5035636;28;20052;-86
2021/11/02 11:54:56;;;;;;;7.97;4.10;;;;;;;9.39;97.35;99467.66;5036450;28;20088;-86
2021/11/02 11:57:37;;;;;;;7.95;4.60;;;;;;;9.23;98.04;99480.22;5035466;28;20047;-86
2021/11/02 12:00:08;;;;;;;8.43;3.85;;;;;;;9.27;98.69;99472.66;5019466;28;20052;-86
2021/11/02 12:02:53;;;;;;;9.15;4.82;;;;;;;9.31;99.36;99475.78;5020532;28;20063;-86
2021/11/02 12:05:22;;;;;;;7.03;3.92;;;;;;;9.37;99.98;99475.03;5035626;28;20052;-86
2021/11/02 12:08:03;;;;;;;7.97;3.95;;;;;;;9.41;100.00;99469.13;5032163;28;20045;-86
2021/11/02 12:10:30;;;;;;;8.20;3.63;;;;;;;9.39;99.04;99473.00;5015232;28;20045;-86
2021/11/02 12:13:00;;;;;;;8.85;4.25;;;;;;;9.43;98.81;99475.09;5036465;28;20041;-85
2021/11/02 12:15:42;;;;;;;5.20;3.63;;;;;;;9.56;98.12;99471.75;5035862;28;20051;-87
2021/11/02 12:18:17;;;;;;;7.55;3.60;;;;;;;9.59;96.81;99463.34;5036012;28;20036;-86
2021/11/02 12:20:43;;;;;;;5.00;3.08;;;;;;;9.60;96.59;99464.97;5034457;28;20040;-86
2021/11/02 12:23:18;;;;;;;6.47;3.40;;;;;;;9.59;96.33;99463.34;5036909;28;20048;-85
2021/11/02 12:25:55;;;;;;;6.95;3.70;;;;;;;9.59;96.02;99466.00;5019226;28;20479;-85
2021/11/02 12:28:37;;;;;;;7.30;3.90;;;;;;;9.57;95.51;99462.69;5031344;28;20049;-85
2021/11/02 12:31:09;;;;;;;6.15;3.50;;;;;;;9.60;96.53;99459.63;5014774;28;20519;-85
2021/11/02 12:33:41;;;;;;;6.22;3.78;;;;;;;9.58;95.63;99461.69;5013656;28;20318;-85
2021/11/02 12:36:18;;;;;;;6.60;3.83;;;;;;;9.54;95.31;99464.91;5015725;28;20192;-85
2021/11/02 12:38:45;;;;;;;6.63;3.72;;;;;;;9.54;95.34;99462.25;5002440;28;20044;-86
2021/11/02 12:41:22;;;;;;;7.65;4.20;;;;;;;9.51;95.17;99450.06;5008636;28;20116;-86
2021/11/02 12:44:09;;;;;;;8.05;4.05;;;;;;;9.54;94.35;99455.03;5044251;28;20041;-87
2021/11/02 12:46:40;;;;;;;5.90;3.22;;;;;;;9.54;93.76;99455.03;5029085;28;20029;-86
2021/11/02 12:49:08;;;;;;;5.78;3.25;;;;;;;9.54;92.85;99457.72;5006973;28;20029;-86
2021/11/02 12:51:39;;;;;;;7.68;3.90;;;;;;;9.57;93.21;99453.81;5014696;28;20046;-88
2021/11/02 12:54:10;;;;;;;8.43;4.80;;;;;;;9.63;93.42;99448.53;4999318;28;20067;-86
2021/11/02 12:56:40;;;;;;;6.15;4.18;;;;;;;9.61;93.63;99457.78;5027798;28;20045;-86
2021/11/02 12:59:21;;;;;;;7.85;3.58;;;;;;;9.61;93.97;99447.91;5045197;28;20102;-86
2021/11/02 13:01:50;;;;;;;6.82;3.92;;;;;;;9.62;93.85;99452.22;5055499;28;20045;-88
2021/11/02 13:04:19;;;;;;;7.80;3.97;;;;;;;9.63;93.47;99448.53;5046708;28;20033;-88
2021/11/02 13:06:54;;;;;;;6.18;3.65;;;;;;;9.65;93.21;99446.50;5034667;28;20034;-86
2021/11/02 13:09:21;;;;;;;10.00;3.80;;;;;;;9.66;93.29;99448.16;5005112;28;20894;-87
2021/11/02 13:12:02;;;;;;;8.05;3.65;;;;;;;9.69;93.05;99446.94;5029717;28;20095;-87
2021/11/02 13:14:49;;;;;;;8.98;4.43;;;;;;;9.73;93.27;99448.22;5020930;28;20099;-87
2021/11/02 13:17:17;;;;;;;8.88;4.20;;;;;;;9.71;92.55;99444.91;4978020;28;20038;-87
2021/11/02 13:19:48;;;;;;;7.70;4.03;;;;;;;9.74;93.09;99443.69;4969257;28;20062;-88
2021/11/02 13:22:15;;;;;;;7.07;4.97;;;;;;;9.73;92.19;99445.56;4971446;28;20043;-88
2021/11/02 13:25:10;;;;;;;6.85;4.95;;;;;;;9.76;93.07;99447.84;4979568;28;20050;-88
2021/11/02 13:27:46;;;;;;;8.95;5.40;;;;;;;9.77;92.21;99437.94;4965259;28;20046;-87
2021/11/02 13:30:38;;;;;;;7.65;4.85;;;;;;;9.79;92.46;99435.91;4900148;28;20036;-90
2021/11/02 13:33:13;;;;;;;9.18;5.57;;;;;;;9.85;92.95;99435.16;4862236;29;20803;-87
2021/11/02 13:35:45;;;;;;;6.30;4.38;;;;;;;9.88;92.00;99438.25;4878447;29;20052;-87
2021/11/02 13:38:40;;;;;;;6.80;4.43;;;;;;;9.88;92.03;99445.47;4878341;29;20048;-87
2021/11/02 13:41:10;;;;;;;7.57;4.30;;;;;;;9.90;91.60;99438.09;4852763;29;20516;-87
2021/11/02 13:43:42;;;;;;;8.18;5.53;;;;;;;9.88;91.78;99434.75;4878198;29;20044;-87
2021/11/02 13:46:09;;;;;;;6.40;4.88;;;;;;;9.98;92.13;99431.75;4879288;29;20048;-87
2021/11/02 13:48:35;;;;;;;8.98;4.00;;;;;;;9.98;91.50;99437.09;4893348;29;20041;-87
2021/11/02 13:51:03;;;;;;;6.03;3.30;;;;;;;9.97;90.36;99440.81;4878133;29;20088;-88
2021/11/02 13:53:34;;;;;;;7.55;3.67;;;;;;;9.94;90.47;99434.81;4854664;29;20268;-87
2021/11/02 13:56:03;;;;;;;7.07;3.90;;;;;;;10.03;91.65;99430.13;4947886;28;20057;-87
2021/11/02 13:58:29;;;;;;;6.65;4.10;;;;;;;10.08;91.85;99433.06;4993112;28;20046;-87
2021/11/02 14:00:55;;;;;;;5.85;3.13;;;;;;;10.09;90.61;99433.91;4978684;28;20041;-87
2021/11/02 14:03:26;;;;;;;5.63;3.53;;;;;;;10.10;91.03;99428.34;4978154;28;20184;-88
2021/11/02 14:05:55;;;;;;;5.35;3.70;;;;;;;10.17;90.76;99429.22;5010932;28;20042;-88
2021/11/02 14:08:22;;;;;;;6.03;3.28;;;;;;;10.17;89.51;99428.41;4994259;28;20052;-88
2021/11/02 14:10:58;;;;;;;5.03;3.10;;;;;;;10.23;89.55;99432.16;5035057;28;20762;-86
2021/11/02 14:13:36;;;;;;;;;;;;;;;10.16;89.25;99430.25;4979239;28;20038;-85
2021/11/02 14:16:01;;;;;;;5.80;3.00;;;;;;;10.04;89.52;99423.78;5019890;28;20318;-86
2021/11/02 14:18:34;;;;;;;5.13;3.25;;;;;;;10.07;90.50;99425.22;4997404;28;20049;-86
2021/11/02 14:21:00;;;;;;;5.78;3.70;;;;;;;10.11;91.39;99431.84;4999193;28;20038;-84
2021/11/02 14:23:31;;;;;;;8.65;3.92;;;;;;;10.12;91.19;99426.28;4985201;28;20053;-85
2021/11/02 14:26:21;;;;;;;5.78;3.80;;;;;;;10.19;89.67;99425.53;4987732;28;20058;-85
2021/11/02 14:28:49;;;;;;;4.65;2.85;;;;;;;10.26;89.36;99427.22;5017226;28;20046;-87
2021/11/02 14:31:40;;;;;;;4.13;2.83;;;;;;;10.27;89.14;99428.94;4969374;28;20054;-85
2021/11/02 14:34:32;;;;;;;8.30;3.70;;;;;;;10.26;89.44;99431.75;4984963;28;20069;-84
2021/11/02 14:37:13;;;;;;;4.45;3.10;;;;;;;10.23;89.37;99430.28;4978929;28;20073;-85
2021/11/02 14:40:04;;;;;;;5.57;3.85;;;;;;;10.17;89.86;99431.91;4990565;28;20093;-86
2021/11/02 14:42:49;;;;;;;6.13;4.10;;;;;;;10.12;90.49;99439.69;4972283;28;20047;-86
2021/11/02 14:45:17;;;;;;;5.88;3.65;;;;;;;10.06;90.50;99427.06;4982396;28;20678;-84
2021/11/02 14:47:42;;;;;;;7.85;4.03;;;;;;;10.06;91.16;99429.75;4988063;28;20061;-85
2021/11/02 14:50:33;;;;;;;6.03;3.90;;;;;;;10.04;91.39;99429.13;4993512;28;20769;-85
2021/11/02 14:53:16;;;;;;;6.82;4.55;;;;;;;10.02;91.26;99433.84;5004523;28;20073;-86
2021/11/02 14:55:49;;;;;;;7.35;5.30;;;;;;;10.02;91.32;99425.81;4989104;28;20041;-85
2021/11/02 14:58:40;;;;;;;8.95;5.18;;;;;;;10.00;91.89;99435.06;5001056;28;20468;-85
2021/11/02 15:01:24;;;;;;;6.10;4.43;;;;;;;9.98;91.51;99429.88;5016382;28;20034;-85
2021/11/02 15:04:12;;;;;;;5.00;3.95;;;;;;;9.93;91.92;99433.16;4978708;28;20379;-85
2021/11/02 15:06:47;;;;;;;8.25;5.35;;;;;;;9.91;92.32;99434.38;4988767;28;20057;-86
2021/11/02 15:09:18;;;;;;;9.13;6.07;;;;;;;9.85;91.88;99429.78;4981525;28;20042;-85
2021/11/02 15:11:49;;;;;;;9.52;6.35;;;;;;;9.88;92.22;99429.41;5007875;28;20133;-86
2021/11/02 15:14:29;;;;;;;10.25;6.55;;;;;;;9.85;91.56;99429.78;4994507;28;20038;-87
2021/11/02 15:17:24;;;;;;;10.25;6.45;;;;;;;9.85;92.16;99432.47;5015972;28;20522;-87
2021/11/02 15:19:52;;;;;;;8.27;5.85;;;;;;;9.83;92.04;99429.13;4996311;28;20045;-85
2021/11/02 15:22:20;;;;;;;8.10;5.73;;;;;;;9.77;92.38;99424.56;4977310;28;20042;-85
2021/11/02 15:24:56;;;;;;;9.18;6.65;;;;;;;9.79;92.62;99435.91;4972806;28;20038;-87
2021/11/02 15:27:24;;;;;;;8.63;6.20;;;;;;;9.79;93.01;99422.53;4979830;28;20077;-85
2021/11/02 15:29:54;;;;;;;8.65;5.63;;;;;;;9.77;92.62;99429.91;4965174;28;20047;-86
2021/11/02 15:32:23;;;;;;;10.07;5.97;;;;;;;9.75;93.17;99439.97;4991712;28;20446;-85
2021/11/02 15:34:52;;;;;;;9.02;6.32;;;;;;;9.73;93.55;99428.66;5007978;28;20066;-88
2021/11/02 15:37:21;;;;;;;11.40;6.18;;;;;;;9.67;93.38;99436.44;4992164;28;20053;-86
2021/11/02 15:39:48;;;;;;;;;;;;;;;9.63;93.07;99435.13;4986243;28;20121;-85
2021/11/02 15:42:32;;;;;;;8.68;5.53;;;;;;;9.56;93.96;99431.56;5017675;28;19914;-87
2021/11/02 15:45:17;;;;;;;8.25;5.03;;;;;;;9.56;94.75;99436.94;4977168;28;20129;-86
2021/11/02 15:47:46;;;;;;;6.82;4.03;;;;;;;9.52;94.15;99430.28;4965981;28;20035;-85
2021/11/02 15:50:16;;;;;;;6.57;4.53;;;;;;;9.54;94.18;99438.97;4971689;28;20051;-87
2021/11/02 15:52:42;;;;;;;8.07;4.00;;;;;;;9.56;94.66;99434.25;4976047;28;20034;-85
2021/11/02 15:55:13;;;;;;;5.95;3.88;;;;;;;9.56;95.50;99436.09;4991040;28;20050;-86
2021/11/02 15:57:46;;;;;;;6.07;3.40;;;;;;;9.51;95.25;99428.63;4974381;28;20390;-85
2021/11/02 16:00:14;;;;;;;5.18;3.28;;;;;;;9.47;95.76;99435.41;4988602;28;20126;-87
2021/11/02 16:02:42;;;;;;;8.63;3.30;;;;;;;9.45;95.73;99432.06;4976773;28;20037;-85
2021/11/02 16:05:10;;;;;;;6.07;3.23;;;;;;;9.43;95.76;99434.94;4975593;28;20525;-86
2021/11/02 16:07:37;;;;;;;6.13;3.83;;;;;;;9.41;95.66;99434.31;4990196;28;20049;-86
2021/11/02 16:10:05;;;;;;;4.97;3.40;;;;;;;9.42;95.89;99435.97;4986694;28;20541;-85
2021/11/02 16:12:36;;;;;;;6.80;3.38;;;;;;;9.42;95.65;99432.47;4991479;28;20405;-87
2021/11/02 16:15:15;;;;;;;7.72;3.20;;;;;;;9.41;95.70;99428.13;4973372;28;20114;-85
2021/11/02 16:17:47;;;;;;;;;;;;;;;9.42;96.02;99435.97;4964156;28;20075;-86
2021/11/02 16:20:17;;;;;;;4.55;2.85;;;;;;;9.28;96.28;99431.47;4995851;28;19914;-85
2021/11/02 16:22:49;;;;;;;5.55;3.15;;;;;;;9.30;97.18;99425.94;4980460;28;20126;-87
2021/11/02 16:25:14;;;;;;;9.07;3.67;;;;;;;9.31;97.26;99435.63;4955979;28;20046;-86
2021/11/02 16:27:50;;;;;;;6.75;3.03;;;;;;;9.26;97.22;99437.03;4976553;28;20050;-84
2021/11/02 16:30:19;;;;;;;4.97;3.08;;;;;;;9.27;97.90;99437.88;4991265;28;20038;-86
2021/11/02 16:32:50;;;;;;;6.10;3.03;;;;;;;9.23;98.23;99442.75;4973419;28;20061;-85
2021/11/02 16:35:36;;;;;;;6.90;2.95;;;;;;;9.18;98.67;99437.16;4983755;28;20035;-85
2021/11/02 16:38:23;;;;;;;5.43;2.85;;;;;;;9.18;98.86;99439.81;4977385;28;20046;-87
2021/11/02 16:40:50;;;;;;;7.00;3.58;;;;;;;9.15;99.46;99444.69;4987265;28;20039;-87
2021/11/02 16:43:26;;;;;;;7.10;4.22;;;;;;;9.14;99.85;99451.06;4974303;28;20039;-86
2021/11/02 16:45:52;;;;;;;8.18;4.28;;;;;;;9.05;100.00;99450.34;4970357;28;20050;-87
2021/11/02 16:48:18;;;;;;;7.60;3.97;;;;;;;8.96;100.00;99446.94;4991253;28;20105;-83
2021/11/02 16:50:51;;;;;;;9.95;4.80;;;;;;;8.81;100.00;99452.31;4959709;28;20050;-86
2021/11/02 16:53:23;;;;;;;7.13;4.72;;;;;;;8.82;100.00;99450.47;4986771;28;20081;-87
2021/11/02 16:55:50;;;;;;;7.32;5.22;;;;;;;8.77;100.00;99461.72;4988966;28;20129;-87
2021/11/02 16:58:18;;;;;;;7.57;5.60;;;;;;;8.65;100.00;99455.19;4993875;28;20092;-85
2021/11/02 17:00:45;;;;;;;6.18;4.32;;;;;;;8.59;100.00;99459.41;4980192;28;20062;-87